createdAt,value
2023-04-09T00:00:20.202Z,8.80
2023-04-09T00:03:42.300Z,8.90
2023-04-09T00:07:04.989Z,9.00
2023-04-09T00:10:57.456Z,9.00
2023-04-09T00:14:41.946Z,9.10
2023-04-09T00:18:04.325Z,9.00
2023-04-09T00:21:27.431Z,9.00
2023-04-09T00:33:41.380Z,8.80
2023-04-09T00:37:04.224Z,8.70
2023-04-09T00:40:26.345Z,8.80
2023-04-09T00:43:48.498Z,8.70
2023-04-09T00:47:10.717Z,8.70
2023-04-09T00:50:32.762Z,8.70
2023-04-09T00:53:56.012Z,8.70
2023-04-09T00:57:18.906Z,8.60
2023-04-09T01:00:41.350Z,8.70
2023-04-09T01:04:30.290Z,8.60
2023-04-09T01:08:39.795Z,8.50
2023-04-09T01:12:29.983Z,8.50
2023-04-09T01:15:59.539Z,8.50
2023-04-09T01:20:34.739Z,8.60
2023-04-09T01:29:00.921Z,8.40
2023-04-09T01:32:45.669Z,8.30
2023-04-09T01:41:00.934Z,8.20
2023-04-09T01:44:44.811Z,8.20
2023-04-09T01:48:08.269Z,8.20
2023-04-09T01:51:31.748Z,8.20
2023-04-09T01:54:53.784Z,8.20
2023-04-09T01:58:15.759Z,8.20
2023-04-09T02:02:10.810Z,8.20
2023-04-09T02:05:38.812Z,8.10
2023-04-09T02:09:02.956Z,8.20
2023-04-09T02:12:27.000Z,8.20
2023-04-09T02:15:50.962Z,8.20
2023-04-09T02:19:13.062Z,8.10
2023-04-09T02:22:35.285Z,8.00
2023-04-09T02:26:30.998Z,8.00
2023-04-09T02:30:00.717Z,8.00
2023-04-09T02:33:26.671Z,7.90
2023-04-09T02:41:56.250Z,8.00
2023-04-09T02:46:25.610Z,8.00
2023-04-09T03:06:21.922Z,8.20
2023-04-09T03:09:50.036Z,8.20
2023-04-09T03:17:05.395Z,8.20
2023-04-09T03:20:43.771Z,8.30
2023-04-09T03:25:05.426Z,8.30
2023-04-09T03:28:51.371Z,8.30
2023-04-09T03:36:14.625Z,8.30
2023-04-09T03:40:02.225Z,8.20
2023-04-09T03:43:49.784Z,8.20
2023-04-09T03:47:21.538Z,8.20
2023-04-09T03:50:55.357Z,8.20
2023-04-09T03:58:35.286Z,8.10
2023-04-09T04:02:19.884Z,8.10
2023-04-09T04:05:51.576Z,8.10
2023-04-09T04:09:14.356Z,8.00
2023-04-09T04:12:42.960Z,8.00
2023-04-09T04:20:47.996Z,7.90
2023-04-09T04:24:18.826Z,7.90
2023-04-09T04:27:44.534Z,7.90
2023-04-09T04:32:01.802Z,7.80
2023-04-09T04:35:35.215Z,7.80
2023-04-09T04:39:02.484Z,7.80
2023-04-09T04:46:44.547Z,7.80
2023-04-09T04:51:15.159Z,7.80
2023-04-09T04:59:52.481Z,7.80
2023-04-09T05:17:04.284Z,7.70
2023-04-09T05:35:41.757Z,8.00
2023-04-09T05:39:32.581Z,8.20
2023-04-09T06:12:51.491Z,14.40
2023-04-09T06:20:19.068Z,14.90
2023-04-09T06:23:41.941Z,14.90
2023-04-09T06:27:05.962Z,13.70
2023-04-09T06:30:36.905Z,13.30
2023-04-09T06:34:35.558Z,12.70
2023-04-09T06:52:19.303Z,12.70
2023-04-09T07:08:45.306Z,13.00
2023-04-09T07:12:07.487Z,12.90
2023-04-09T07:15:56.244Z,14.50
2023-04-09T07:19:52.253Z,15.50
2023-04-09T07:23:35.447Z,15.50
2023-04-09T07:56:23.882Z,16.10
2023-04-09T08:00:13.939Z,15.50
2023-04-09T08:03:36.931Z,14.50
2023-04-09T08:07:23.253Z,14.30
2023-04-09T08:10:56.295Z,14.70
2023-04-09T08:14:44.365Z,15.60
2023-04-09T08:18:10.666Z,17.10
2023-04-09T08:53:07.691Z,17.00
2023-04-09T08:57:04.572Z,16.70
2023-04-09T09:05:00.969Z,16.90
2023-04-09T09:40:09.588Z,18.90
2023-04-09T09:43:51.874Z,21.00
2023-04-09T09:47:15.050Z,21.60
2023-04-09T09:51:38.969Z,20.80
2023-04-09T09:55:28.241Z,21.00
2023-04-09T09:59:03.944Z,21.30
2023-04-09T10:02:50.224Z,20.70
2023-04-09T10:06:41.989Z,22.40
2023-04-09T10:10:24.988Z,21.80
2023-04-09T10:14:08.251Z,21.10
2023-04-09T10:17:46.291Z,20.40
2023-04-09T10:26:30.915Z,17.90
2023-04-09T10:29:53.277Z,19.10
2023-04-09T10:38:47.093Z,18.60
2023-04-09T10:42:19.254Z,18.60
2023-04-09T10:45:44.360Z,18.60
2023-04-09T10:49:13.752Z,19.90
2023-04-09T10:52:36.517Z,20.20
2023-04-09T11:04:34.502Z,18.90
2023-04-09T11:13:34.972Z,18.20
2023-04-09T11:17:25.198Z,18.40
2023-04-09T11:21:03.647Z,19.50
2023-04-09T11:29:46.318Z,20.50
2023-04-09T11:34:30.965Z,19.80
2023-04-09T11:38:12.048Z,19.90
2023-04-09T11:41:49.736Z,19.50
2023-04-09T11:45:28.015Z,19.90
2023-04-09T11:53:52.841Z,19.40
2023-04-09T12:10:26.419Z,18.50
2023-04-09T12:14:40.670Z,19.30
2023-04-09T12:18:48.612Z,20.50
2023-04-09T12:36:47.542Z,19.50
2023-04-09T12:40:38.668Z,18.50
2023-04-09T12:44:13.164Z,18.80
2023-04-09T12:47:35.255Z,19.30
2023-04-09T12:50:57.536Z,19.50
2023-04-09T12:54:56.939Z,19.20
2023-04-09T12:59:09.690Z,18.20
2023-04-09T13:07:17.325Z,18.70
2023-04-09T13:10:54.120Z,19.40
2023-04-09T13:14:49.583Z,18.30
2023-04-09T13:18:38.740Z,17.60
2023-04-09T13:22:34.530Z,17.20
2023-04-09T13:25:57.351Z,17.00
2023-04-09T13:29:19.484Z,16.80
2023-04-09T13:33:02.177Z,16.90
2023-04-09T13:37:07.932Z,16.80
2023-04-09T13:41:45.905Z,17.00
2023-04-09T13:45:36.650Z,16.80
2023-04-09T13:53:57.321Z,17.00
2023-04-09T14:03:17.355Z,16.90
2023-04-09T14:07:13.996Z,16.90
2023-04-09T14:10:39.278Z,17.00
2023-04-09T14:20:06.815Z,17.10
2023-04-09T14:28:02.851Z,16.70
2023-04-09T14:31:26.701Z,16.70
2023-04-09T14:35:27.328Z,16.70
2023-04-09T14:51:53.342Z,16.20
2023-04-09T15:11:36.104Z,16.40
2023-04-09T15:15:05.263Z,16.70
2023-04-09T15:34:13.051Z,15.80
2023-04-09T15:47:09.714Z,15.60
2023-04-09T15:50:31.747Z,15.60
2023-04-09T15:53:53.815Z,15.60
2023-04-09T16:11:44.728Z,14.70
2023-04-09T16:20:35.709Z,14.50
2023-04-09T16:29:36.336Z,14.10
2023-04-09T16:33:27.213Z,14.00
2023-04-09T16:41:42.215Z,14.00
2023-04-09T17:02:35.097Z,13.30
2023-04-09T17:06:08.867Z,13.20
2023-04-09T17:09:51.896Z,13.10
2023-04-09T17:14:35.986Z,13.00
2023-04-09T17:17:47.643Z,13.00
2023-04-09T17:21:12.523Z,12.90
2023-04-09T17:29:08.141Z,12.70
2023-04-09T17:37:51.152Z,12.60
2023-04-09T17:41:39.525Z,12.70
2023-04-09T17:41:45.528Z,12.60
2023-04-09T17:45:31.023Z,12.50
2023-04-09T17:49:37.941Z,12.50
2023-04-09T17:57:50.715Z,12.50
2023-04-09T18:05:54.761Z,12.40
2023-04-09T18:13:54.019Z,12.40
2023-04-09T18:31:33.212Z,12.40
2023-04-09T18:35:29.640Z,12.30
2023-04-09T18:39:55.344Z,12.30
2023-04-09T18:47:53.054Z,12.20
2023-04-09T19:10:43.417Z,11.90
2023-04-09T19:14:21.772Z,11.90
2023-04-09T19:19:01.634Z,11.80
2023-04-09T19:22:49.719Z,11.70
2023-04-09T19:26:15.922Z,11.60
2023-04-09T19:34:22.349Z,11.60
2023-04-09T19:37:55.994Z,11.60
2023-04-09T19:41:58.185Z,11.50
2023-04-09T19:46:21.643Z,11.40
2023-04-09T19:54:18.518Z,11.40
2023-04-09T20:10:25.972Z,11.20
2023-04-09T20:14:52.676Z,11.20
2023-04-09T20:18:49.653Z,11.10
2023-04-09T20:22:43.256Z,11.10
2023-04-09T20:26:33.738Z,11.00
2023-04-09T20:31:36.962Z,11.00
2023-04-09T20:44:26.464Z,11.00
2023-04-09T21:30:11.416Z,10.20
2023-04-09T21:34:07.776Z,10.20
2023-04-09T21:37:42.461Z,10.10
2023-04-09T21:41:32.829Z,10.10
2023-04-09T21:45:41.397Z,10.00
2023-04-09T21:49:59.490Z,10.00
2023-04-09T21:57:51.901Z,10.00
2023-04-09T22:01:29.550Z,10.00
2023-04-09T22:05:01.805Z,10.10
2023-04-09T22:08:38.482Z,10.00
2023-04-09T22:30:43.775Z,9.80
2023-04-09T22:38:04.928Z,9.70
2023-04-09T22:54:31.131Z,9.80
2023-04-09T22:58:31.666Z,9.70
2023-04-09T23:02:07.784Z,9.70
2023-04-09T23:06:17.606Z,9.60
2023-04-09T23:10:19.425Z,9.50
2023-04-09T23:14:24.455Z,9.50
2023-04-09T23:18:14.041Z,9.50
2023-04-09T23:22:17.482Z,9.40
2023-04-09T23:26:12.441Z,9.40
2023-04-09T23:29:58.461Z,9.40
2023-04-09T23:33:55.141Z,9.50
2023-04-09T23:37:22.064Z,9.50
2023-04-09T23:41:37.168Z,9.60
2023-04-09T23:46:21.565Z,9.60
2023-04-09T23:51:01.246Z,9.70
2023-04-09T23:54:27.887Z,9.60
2023-04-09T23:57:50.714Z,9.50
